LFMK/CCF METAR and TAF weather

Enter ICAO airport designator
Station Type Date Time Source
LFMK METAR 2022/06/25 23:30 UTC NOAA

LFMK 252330Z AUTO 27011KT 230V300 9999 OVC043 18/16 Q1013


Station Type Date Time Source
LFMK Decoded METAR 2022/06/25 23:30 UTC NOAA

Carcassonne, France (LFMK) 43-13N 002-19E 130M
Jun 25, 2022 - 07:30 PM EDT / 2022.06.25 2330 UTC
Wind: from the W (270 degrees) at 13 MPH (11 KT) (direction variable):0
Visibility: greater than 7 mile(s):0
Sky conditions: overcast
Temperature: 64 F (18 C)
Dew Point: 60 F (16 C)
Relative Humidity: 88%
Pressure (altimeter): 29.91 in. Hg (1013 hPa)
ob: LFMK 252330Z AUTO 27011KT 230V300 9999 OVC043 18/16 Q1013
cycle: 23

Station Type Date Time Source
LFMK TAF 2022/06/25 18:15 UTC NOAA

TAF LFMK 251807Z 2518/2615 CNL

Example: see airport list